createdAt,value
2022-09-27T00:01:10.940Z,2.73
2022-09-27T00:03:39.206Z,6.17
2022-09-27T00:06:13.257Z,6.03
2022-09-27T00:08:41.577Z,5.67
2022-09-27T00:11:13.711Z,5.83
2022-09-27T00:13:41.920Z,5.73
2022-09-27T00:16:11.159Z,6.00
2022-09-27T00:18:39.180Z,5.87
2022-09-27T00:21:10.699Z,6.30
2022-09-27T00:23:38.910Z,4.53
2022-09-27T00:26:08.203Z,5.43
2022-09-27T00:28:36.178Z,3.63
2022-09-27T00:31:04.655Z,4.83
2022-09-27T00:33:32.562Z,7.40
2022-09-27T00:36:05.659Z,6.33
2022-09-27T00:38:34.857Z,3.97
2022-09-27T00:41:02.835Z,4.73
2022-09-27T00:43:45.888Z,4.93
2022-09-27T00:46:17.728Z,4.00
2022-09-27T00:48:47.396Z,4.50
2022-09-27T00:51:16.590Z,4.47
2022-09-27T00:53:51.674Z,8.30
2022-09-27T00:56:23.010Z,6.70
2022-09-27T00:58:56.614Z,6.43
2022-09-27T01:01:24.605Z,7.93
2022-09-27T01:03:57.615Z,2.73
2022-09-27T01:06:25.546Z,2.60
2022-09-27T01:08:54.731Z,3.63
2022-09-27T01:11:36.430Z,6.30
2022-09-27T01:14:18.533Z,3.93
2022-09-27T01:16:54.335Z,5.43
2022-09-27T01:19:47.931Z,4.37
2022-09-27T01:22:19.589Z,3.23
2022-09-27T01:25:03.505Z,3.10
2022-09-27T01:28:10.265Z,4.93
2022-09-27T01:30:46.320Z,1.97
2022-09-27T01:33:24.089Z,3.67
2022-09-27T01:36:07.090Z,7.17
2022-09-27T01:38:46.320Z,5.23
2022-09-27T01:41:29.175Z,5.83
2022-09-27T01:44:26.043Z,5.20
2022-09-27T01:47:05.392Z,8.13
2022-09-27T01:49:47.589Z,3.03
2022-09-27T01:52:20.347Z,3.37
2022-09-27T01:54:54.284Z,5.63
2022-09-27T01:57:28.761Z,4.60
2022-09-27T02:00:02.523Z,3.83
2022-09-27T02:02:47.155Z,3.67
2022-09-27T02:05:38.763Z,3.90
2022-09-27T02:08:27.252Z,2.00
2022-09-27T02:10:59.145Z,3.43
2022-09-27T02:13:38.916Z,2.60
2022-09-27T02:16:33.672Z,4.43
2022-09-27T02:19:11.343Z,1.73
2022-09-27T02:21:45.990Z,2.67
2022-09-27T02:24:20.701Z,4.50
2022-09-27T02:27:00.669Z,2.57
2022-09-27T02:29:35.276Z,2.60
2022-09-27T02:32:03.542Z,4.10
2022-09-27T02:34:34.939Z,3.23
2022-09-27T02:37:03.173Z,1.97
2022-09-27T02:39:31.115Z,0.83
2022-09-27T02:42:06.472Z,1.43
2022-09-27T02:44:35.131Z,2.03
2022-09-27T02:47:16.470Z,3.90
2022-09-27T02:50:01.044Z,4.53
2022-09-27T02:52:56.910Z,3.27
2022-09-27T02:55:44.124Z,2.80
2022-09-27T02:58:46.291Z,1.97
2022-09-27T03:01:38.871Z,4.37
2022-09-27T03:04:16.526Z,3.00
2022-09-27T03:06:48.217Z,4.90
2022-09-27T03:09:20.433Z,6.23
2022-09-27T03:11:48.970Z,2.70
2022-09-27T03:14:17.006Z,6.07
2022-09-27T03:16:57.563Z,3.37
2022-09-27T03:19:44.171Z,3.57
2022-09-27T03:22:28.374Z,8.27
2022-09-27T03:24:57.539Z,2.87
2022-09-27T03:27:25.761Z,4.37
2022-09-27T03:29:53.791Z,4.37
2022-09-27T03:32:21.848Z,5.57
2022-09-27T03:35:10.844Z,4.07
2022-09-27T03:37:40.991Z,3.77
2022-09-27T03:40:10.463Z,6.43
2022-09-27T03:42:39.375Z,6.00
2022-09-27T03:45:08.727Z,3.03
2022-09-27T03:47:40.443Z,4.83
2022-09-27T03:50:09.561Z,4.80
2022-09-27T03:52:37.718Z,2.83
2022-09-27T03:55:08.347Z,2.97
2022-09-27T03:57:36.453Z,3.17
2022-09-27T04:00:05.670Z,5.10
2022-09-27T04:02:39.309Z,2.73
2022-09-27T04:05:28.699Z,2.92
2022-09-27T04:08:07.798Z,5.93
2022-09-27T04:10:37.038Z,5.70
2022-09-27T04:13:05.728Z,3.10
2022-09-27T04:15:39.738Z,3.07
2022-09-27T04:18:40.033Z,3.27
2022-09-27T04:21:26.535Z,3.80
2022-09-27T04:23:55.900Z,2.63
2022-09-27T04:26:26.522Z,1.90
2022-09-27T04:29:03.804Z,3.30
2022-09-27T04:31:33.599Z,2.93
2022-09-27T04:34:45.876Z,3.53
2022-09-27T04:37:20.126Z,2.87
2022-09-27T04:39:50.311Z,2.97
2022-09-27T04:42:19.845Z,2.60
2022-09-27T04:44:47.787Z,3.73
2022-09-27T04:47:15.846Z,3.27
2022-09-27T04:49:44.009Z,2.40
2022-09-27T04:52:11.942Z,3.63
2022-09-27T04:54:40.278Z,4.10
2022-09-27T04:57:12.831Z,3.37
2022-09-27T04:59:42.794Z,4.03
2022-09-27T05:02:11.204Z,4.60
2022-09-27T05:04:59.458Z,3.03
2022-09-27T05:07:34.646Z,2.70
2022-09-27T05:10:07.091Z,1.83
2022-09-27T05:12:35.538Z,4.27
2022-09-27T05:15:06.224Z,2.13
2022-09-27T05:17:39.775Z,3.67
2022-09-27T05:20:26.554Z,2.13
2022-09-27T05:22:57.178Z,4.37
2022-09-27T05:25:25.483Z,1.33
2022-09-27T05:27:53.740Z,1.40
2022-09-27T05:30:23.135Z,2.77
2022-09-27T05:32:55.755Z,1.83
2022-09-27T05:35:47.156Z,1.93
2022-09-27T05:38:15.424Z,2.73
2022-09-27T05:40:50.207Z,1.30
2022-09-27T05:43:18.900Z,0.70
2022-09-27T05:45:48.969Z,1.87
2022-09-27T05:48:20.211Z,1.47
2022-09-27T05:51:00.026Z,2.03
2022-09-27T05:53:27.927Z,2.13
2022-09-27T05:55:55.864Z,2.73
2022-09-27T05:58:32.636Z,1.10
2022-09-27T06:01:15.245Z,1.10
2022-09-27T06:04:03.451Z,2.40
2022-09-27T06:07:09.932Z,3.33
2022-09-27T06:09:37.960Z,3.90
2022-09-27T06:12:10.827Z,3.20
2022-09-27T06:14:39.278Z,3.63
2022-09-27T06:17:12.147Z,2.60
2022-09-27T06:19:43.199Z,3.43
2022-09-27T06:22:11.186Z,3.93
2022-09-27T06:24:46.025Z,2.97
2022-09-27T06:27:20.502Z,3.43
2022-09-27T06:30:09.097Z,2.80
2022-09-27T06:32:48.495Z,3.40
2022-09-27T06:35:25.026Z,2.73
2022-09-27T06:37:53.639Z,2.00
2022-09-27T06:40:24.664Z,3.40
2022-09-27T06:43:19.197Z,2.13
2022-09-27T06:46:14.886Z,1.83
2022-09-27T06:48:53.536Z,2.17
2022-09-27T06:51:22.848Z,2.87
2022-09-27T06:53:50.762Z,5.27
2022-09-27T06:56:18.811Z,2.17
2022-09-27T06:59:07.387Z,2.40
2022-09-27T07:01:44.687Z,2.50
2022-09-27T07:04:29.261Z,2.70
2022-09-27T07:07:11.790Z,3.83
2022-09-27T07:09:43.420Z,2.20
2022-09-27T07:12:13.409Z,4.13
2022-09-27T07:14:42.413Z,1.83
2022-09-27T07:17:14.452Z,2.87
2022-09-27T07:19:47.195Z,3.07
2022-09-27T07:22:15.186Z,3.40
2022-09-27T07:24:46.330Z,3.30
2022-09-27T07:27:15.546Z,3.43
2022-09-27T07:29:43.504Z,3.83
2022-09-27T07:32:11.385Z,3.67
2022-09-27T07:34:39.988Z,4.83
2022-09-27T07:37:10.012Z,4.90
2022-09-27T07:39:40.703Z,4.93
2022-09-27T07:42:08.702Z,4.60
2022-09-27T07:44:40.106Z,4.67
2022-09-27T07:47:25.139Z,4.30
2022-09-27T07:50:12.404Z,4.47
2022-09-27T07:53:04.773Z,4.47
2022-09-27T07:55:52.616Z,3.53
2022-09-27T07:58:23.620Z,3.70
2022-09-27T08:00:56.798Z,4.33
2022-09-27T08:03:24.792Z,4.27
2022-09-27T08:05:52.754Z,4.80
2022-09-27T08:08:22.900Z,6.20
2022-09-27T08:10:51.962Z,4.77
2022-09-27T08:13:20.855Z,4.50
2022-09-27T08:15:52.377Z,5.83
2022-09-27T08:18:21.872Z,4.83
2022-09-27T08:20:57.911Z,5.03
2022-09-27T08:23:49.675Z,6.40
2022-09-27T08:26:29.784Z,3.80
2022-09-27T08:29:09.509Z,5.33
2022-09-27T08:31:42.504Z,4.83
2022-09-27T08:34:10.398Z,6.40
2022-09-27T08:36:38.407Z,6.57
2022-09-27T08:39:07.648Z,7.57
2022-09-27T08:41:51.229Z,6.23
2022-09-27T08:44:26.670Z,5.33
2022-09-27T08:47:07.757Z,6.80
2022-09-27T08:49:40.459Z,6.33
2022-09-27T08:52:14.948Z,7.00
2022-09-27T08:54:46.037Z,6.63
2022-09-27T08:57:32.712Z,7.20
2022-09-27T09:00:05.769Z,9.13
2022-09-27T09:02:34.325Z,7.43
2022-09-27T09:05:08.490Z,8.57
2022-09-27T09:07:58.139Z,7.73
2022-09-27T09:10:59.556Z,8.70
2022-09-27T09:13:44.707Z,7.87
2022-09-27T09:16:28.428Z,9.37
2022-09-27T09:19:13.606Z,11.10
2022-09-27T09:22:13.391Z,8.27
2022-09-27T09:24:58.225Z,7.73
2022-09-27T09:27:38.370Z,8.27
2022-09-27T09:30:21.560Z,10.67
2022-09-27T09:33:10.757Z,9.63
2022-09-27T09:35:43.809Z,11.10
2022-09-27T09:38:16.083Z,9.10
2022-09-27T09:40:49.702Z,8.53
2022-09-27T09:43:23.450Z,8.77
2022-09-27T09:45:57.518Z,8.30
2022-09-27T09:48:33.591Z,8.23
2022-09-27T09:51:10.142Z,7.30
2022-09-27T09:53:42.569Z,10.17
2022-09-27T09:56:16.577Z,8.30
2022-09-27T09:58:50.999Z,8.27
2022-09-27T10:01:26.988Z,7.77
2022-09-27T10:03:56.019Z,8.27
2022-09-27T10:06:25.382Z,7.53
2022-09-27T10:08:55.603Z,6.07
2022-09-27T10:11:40.004Z,5.30
2022-09-27T10:14:15.327Z,7.77
2022-09-27T10:16:48.627Z,5.13
2022-09-27T10:19:20.624Z,4.50
2022-09-27T10:21:51.932Z,6.33
2022-09-27T10:24:20.707Z,4.57
2022-09-27T10:27:09.117Z,4.43
2022-09-27T10:29:40.027Z,5.10
2022-09-27T10:32:24.586Z,4.67
2022-09-27T10:35:30.587Z,3.67
2022-09-27T10:38:22.201Z,2.83
2022-09-27T10:40:52.483Z,2.20
2022-09-27T10:43:29.588Z,2.73
2022-09-27T10:46:17.270Z,2.27
2022-09-27T10:48:48.745Z,3.03
2022-09-27T10:51:26.052Z,3.00
2022-09-27T10:53:58.633Z,2.40
2022-09-27T10:56:33.584Z,2.13
2022-09-27T10:59:04.079Z,1.77
2022-09-27T11:01:45.458Z,2.07
2022-09-27T11:04:24.212Z,2.93
2022-09-27T11:06:52.261Z,2.80
2022-09-27T11:09:26.303Z,2.77
2022-09-27T11:12:10.499Z,2.70
2022-09-27T11:14:39.702Z,2.20
2022-09-27T11:17:16.097Z,1.53
2022-09-27T11:20:21.020Z,2.50
2022-09-27T11:23:11.903Z,2.37
2022-09-27T11:25:52.040Z,1.00
2022-09-27T11:28:31.590Z,2.13
2022-09-27T11:31:07.116Z,1.00
2022-09-27T11:34:05.622Z,0.80
2022-09-27T11:36:51.321Z,3.37
2022-09-27T11:39:27.140Z,1.70
2022-09-27T11:42:13.050Z,1.63
2022-09-27T11:45:13.304Z,6.30
2022-09-27T11:47:50.850Z,0.60
2022-09-27T11:50:55.688Z,0.83
2022-09-27T11:53:38.716Z,2.10
2022-09-27T11:56:21.563Z,2.47
2022-09-27T11:59:02.390Z,1.37
2022-09-27T12:01:38.940Z,2.50
2022-09-27T12:04:40.083Z,1.10
2022-09-27T12:07:22.378Z,1.57
2022-09-27T12:09:54.339Z,1.13
2022-09-27T12:12:25.911Z,0.73
2022-09-27T12:14:56.954Z,2.10
2022-09-27T12:17:27.517Z,1.83
2022-09-27T12:20:00.800Z,4.73
2022-09-27T12:22:59.500Z,1.77
2022-09-27T12:25:54.128Z,1.70
2022-09-27T12:28:36.997Z,1.10
2022-09-27T12:31:28.399Z,2.27
2022-09-27T12:34:06.879Z,2.23
2022-09-27T12:36:38.840Z,0.90
2022-09-27T12:39:16.723Z,2.87
2022-09-27T12:42:09.387Z,2.10
2022-09-27T12:44:49.012Z,2.50
2022-09-27T12:47:33.218Z,3.07
2022-09-27T12:50:06.963Z,3.53
2022-09-27T12:52:42.384Z,2.87
2022-09-27T12:55:47.480Z,2.03
2022-09-27T12:58:57.563Z,2.37
2022-09-27T13:01:41.915Z,2.63
2022-09-27T13:04:27.215Z,3.13
2022-09-27T13:07:11.994Z,4.90
2022-09-27T13:10:26.235Z,6.57
2022-09-27T13:12:58.071Z,4.70
2022-09-27T13:15:30.347Z,4.80
2022-09-27T13:18:01.742Z,4.13
2022-09-27T13:20:46.355Z,4.67
2022-09-27T13:23:55.084Z,4.80
2022-09-27T13:26:48.911Z,4.83
2022-09-27T13:29:30.846Z,5.37
2022-09-27T13:32:23.500Z,5.93
2022-09-27T13:35:23.071Z,3.80
2022-09-27T13:37:59.385Z,3.50
2022-09-27T13:40:36.315Z,2.20
2022-09-27T13:43:32.887Z,4.90
2022-09-27T13:46:09.472Z,2.03
2022-09-27T13:48:50.579Z,4.87
2022-09-27T13:51:29.875Z,4.73
2022-09-27T13:53:59.753Z,3.17
2022-09-27T13:56:50.643Z,2.77
2022-09-27T13:59:26.370Z,6.80
2022-09-27T14:02:21.837Z,3.57
2022-09-27T14:04:51.924Z,4.10
2022-09-27T14:07:25.763Z,2.23
2022-09-27T14:10:00.614Z,3.17
2022-09-27T14:12:35.793Z,3.30
2022-09-27T14:15:08.503Z,4.33
2022-09-27T14:17:45.741Z,3.10
2022-09-27T14:20:33.979Z,4.27
2022-09-27T14:23:04.436Z,3.67
2022-09-27T14:25:40.537Z,3.83
2022-09-27T14:28:21.298Z,3.20
2022-09-27T14:31:22.394Z,2.93
2022-09-27T14:34:13.109Z,3.20
2022-09-27T14:37:18.865Z,2.57
2022-09-27T14:39:59.125Z,2.63
2022-09-27T14:42:36.547Z,3.33
2022-09-27T14:45:19.091Z,2.20
2022-09-27T14:47:48.324Z,3.37
2022-09-27T14:50:23.736Z,3.40
2022-09-27T14:52:55.435Z,2.33
2022-09-27T14:55:25.520Z,3.63
2022-09-27T14:57:55.588Z,2.53
2022-09-27T15:00:26.131Z,3.37
2022-09-27T15:02:56.716Z,3.60
2022-09-27T15:05:35.743Z,3.13
2022-09-27T15:08:05.866Z,4.27
2022-09-27T15:10:36.485Z,2.70
2022-09-27T15:13:06.835Z,4.27
2022-09-27T15:15:36.279Z,4.60
2022-09-27T15:18:05.484Z,5.47
2022-09-27T15:20:36.486Z,4.17
2022-09-27T15:23:06.187Z,6.33
2022-09-27T15:25:36.842Z,3.53
2022-09-27T15:28:06.740Z,2.53
2022-09-27T15:30:38.157Z,3.30
2022-09-27T15:33:07.407Z,4.67
2022-09-27T15:35:37.629Z,5.07
2022-09-27T15:38:25.804Z,3.87
2022-09-27T15:41:12.920Z,2.83
2022-09-27T15:43:46.394Z,3.77
2022-09-27T15:46:36.400Z,2.43
2022-09-27T15:49:30.134Z,2.80
2022-09-27T15:52:00.730Z,2.07
2022-09-27T15:54:30.676Z,1.90
2022-09-27T15:57:04.154Z,3.17
2022-09-27T15:59:34.680Z,5.27
2022-09-27T16:02:08.202Z,4.23
2022-09-27T16:04:36.397Z,2.77
2022-09-27T16:07:08.932Z,2.83
2022-09-27T16:09:37.129Z,4.20
2022-09-27T16:12:05.300Z,4.23
2022-09-27T16:14:33.214Z,3.60
2022-09-27T16:17:01.077Z,3.43
2022-09-27T16:21:38.946Z,2.53
2022-09-27T16:24:06.979Z,3.67
2022-09-27T16:26:34.935Z,3.43
2022-09-27T16:29:02.830Z,4.37
2022-09-27T16:31:30.732Z,2.57
2022-09-27T16:34:00.313Z,2.70
2022-09-27T16:36:28.190Z,3.30
2022-09-27T16:38:57.398Z,4.53
2022-09-27T16:41:25.268Z,3.73
2022-09-27T16:43:53.179Z,4.63
2022-09-27T16:46:21.729Z,2.67
2022-09-27T16:48:49.784Z,4.20
2022-09-27T16:51:36.979Z,5.27
2022-09-27T16:54:07.926Z,3.63
2022-09-27T16:56:36.075Z,3.27
2022-09-27T16:59:06.482Z,2.83
2022-09-27T17:01:34.760Z,4.47
2022-09-27T17:04:02.915Z,2.87
2022-09-27T17:06:31.786Z,3.57
2022-09-27T17:09:42.314Z,3.23
2022-09-27T17:12:28.980Z,3.60
2022-09-27T17:14:57.022Z,3.77
2022-09-27T17:17:25.753Z,5.17
2022-09-27T17:19:53.717Z,2.70
2022-09-27T17:22:21.667Z,4.27
2022-09-27T17:24:51.167Z,3.00
2022-09-27T17:27:21.008Z,3.93
2022-09-27T17:29:51.907Z,5.00
2022-09-27T17:32:24.562Z,2.83
2022-09-27T17:34:53.056Z,3.87
2022-09-27T17:37:20.968Z,3.50
2022-09-27T17:39:50.272Z,3.50
2022-09-27T17:42:18.873Z,3.10
2022-09-27T17:44:47.498Z,2.80
2022-09-27T17:47:33.050Z,5.83
2022-09-27T17:50:18.395Z,9.70
2022-09-27T17:52:46.551Z,2.70
2022-09-27T17:55:15.973Z,3.90
2022-09-27T17:57:43.939Z,3.57
2022-09-27T18:00:12.510Z,7.73
2022-09-27T18:02:44.956Z,7.33
2022-09-27T18:05:13.040Z,3.43
2022-09-27T18:07:40.877Z,5.87
2022-09-27T18:10:09.115Z,3.23
2022-09-27T18:12:38.996Z,3.30
2022-09-27T18:15:08.034Z,3.37
2022-09-27T18:17:37.229Z,5.47
2022-09-27T18:20:06.655Z,2.07
2022-09-27T18:22:34.704Z,2.10
2022-09-27T18:25:03.403Z,3.57
2022-09-27T18:27:32.354Z,2.80
2022-09-27T18:30:03.268Z,4.63
2022-09-27T18:32:31.134Z,3.53
2022-09-27T18:34:59.019Z,3.83
2022-09-27T18:37:26.999Z,2.60
2022-09-27T18:39:55.562Z,3.07
2022-09-27T18:42:23.467Z,3.40
2022-09-27T18:44:51.355Z,2.20
2022-09-27T18:47:20.812Z,5.10
2022-09-27T18:49:49.066Z,2.87
2022-09-27T18:52:16.985Z,2.57
2022-09-27T18:54:44.876Z,3.50
2022-09-27T18:57:12.727Z,2.80
2022-09-27T18:59:40.572Z,3.47
2022-09-27T19:02:10.477Z,4.67
2022-09-27T19:04:39.802Z,2.63
2022-09-27T19:07:08.073Z,3.47
2022-09-27T19:09:35.970Z,5.27
2022-09-27T19:12:04.115Z,3.23
2022-09-27T19:14:31.990Z,3.07
2022-09-27T19:16:59.867Z,5.97
2022-09-27T19:19:27.778Z,4.63
2022-09-27T19:21:56.991Z,3.57
2022-09-27T19:24:24.979Z,5.70
2022-09-27T19:26:53.792Z,5.07
2022-09-27T19:29:21.695Z,3.23
2022-09-27T19:31:49.590Z,4.13
2022-09-27T19:34:17.752Z,5.63
2022-09-27T19:36:45.631Z,4.63
2022-09-27T19:39:14.887Z,5.13
2022-09-27T19:41:42.788Z,5.03
2022-09-27T19:44:10.768Z,3.93
2022-09-27T19:46:39.135Z,2.93
2022-09-27T19:49:07.138Z,2.67
2022-09-27T19:51:34.986Z,3.70
2022-09-27T19:54:04.011Z,2.50
2022-09-27T19:56:33.991Z,2.13
2022-09-27T19:59:06.863Z,2.83
2022-09-27T20:01:35.503Z,2.17
2022-09-27T20:04:03.965Z,2.57
2022-09-27T20:06:32.615Z,2.33
2022-09-27T20:09:02.865Z,2.43
2022-09-27T20:11:31.226Z,1.90
2022-09-27T20:14:00.467Z,2.77
2022-09-27T20:16:28.979Z,3.37
2022-09-27T20:18:58.703Z,2.70
2022-09-27T20:21:29.101Z,2.70
2022-09-27T20:23:58.180Z,4.17
2022-09-27T20:26:27.676Z,3.73
2022-09-27T20:28:57.598Z,2.30
2022-09-27T20:31:28.824Z,3.13
2022-09-27T20:33:57.378Z,3.73
2022-09-27T20:36:26.695Z,3.80
2022-09-27T20:39:01.078Z,2.53
2022-09-27T20:41:33.167Z,3.67
2022-09-27T20:44:03.402Z,3.30
2022-09-27T20:46:33.587Z,4.07
2022-09-27T20:49:03.385Z,4.43
2022-09-27T20:51:33.176Z,3.33
2022-09-27T20:54:01.358Z,4.03
2022-09-27T20:56:31.436Z,6.43
2022-09-27T20:59:01.864Z,5.13
2022-09-27T21:01:31.981Z,4.40
2022-09-27T21:04:01.434Z,3.00
2022-09-27T21:06:31.171Z,4.47
2022-09-27T21:09:00.311Z,5.20
2022-09-27T21:11:28.543Z,3.10
2022-09-27T21:13:56.458Z,3.83
2022-09-27T21:16:26.486Z,3.73
2022-09-27T21:18:58.537Z,3.27
2022-09-27T21:21:27.616Z,3.67
2022-09-27T21:23:57.286Z,3.73
2022-09-27T21:26:27.055Z,2.80
2022-09-27T21:28:56.695Z,3.67
2022-09-27T21:31:26.170Z,4.13
2022-09-27T21:33:58.922Z,5.07
2022-09-27T21:36:28.459Z,3.40
2022-09-27T21:38:57.116Z,4.47
2022-09-27T21:41:25.556Z,3.30
2022-09-27T21:43:53.914Z,5.27
2022-09-27T21:46:23.525Z,4.43
2022-09-27T21:48:55.313Z,3.80
2022-09-27T21:51:26.024Z,4.27
2022-09-27T21:53:55.537Z,4.17
2022-09-27T21:56:24.384Z,3.00
2022-09-27T21:58:52.660Z,4.67
2022-09-27T22:01:22.645Z,3.43
2022-09-27T22:03:52.027Z,3.30
2022-09-27T22:06:21.840Z,4.53
2022-09-27T22:08:52.111Z,4.93
2022-09-27T22:11:21.654Z,3.87
2022-09-27T22:13:50.180Z,3.10
2022-09-27T22:16:19.992Z,3.27
2022-09-27T22:18:50.268Z,3.70
2022-09-27T22:21:20.931Z,4.20
2022-09-27T22:23:48.854Z,4.30
2022-09-27T22:26:19.448Z,3.27
2022-09-27T22:28:47.887Z,3.80
2022-09-27T22:31:18.480Z,3.83
2022-09-27T22:33:49.772Z,5.10
2022-09-27T22:36:18.513Z,8.00
2022-09-27T22:38:46.515Z,4.50
2022-09-27T22:41:14.452Z,3.73
2022-09-27T22:43:44.118Z,4.03
2022-09-27T22:46:12.962Z,3.30
2022-09-27T22:48:42.160Z,5.23
2022-09-27T22:51:10.280Z,4.53
2022-09-27T22:53:38.409Z,4.40
2022-09-27T22:56:08.907Z,4.70
2022-09-27T22:58:38.124Z,4.27
2022-09-27T23:01:11.371Z,6.07
2022-09-27T23:03:39.477Z,4.43
2022-09-27T23:06:08.224Z,5.17
2022-09-27T23:08:36.912Z,3.50
2022-09-27T23:11:07.829Z,4.47
2022-09-27T23:13:37.474Z,4.20
2022-09-27T23:16:07.991Z,3.63
2022-09-27T23:18:38.178Z,4.57
2022-09-27T23:21:08.370Z,4.53
2022-09-27T23:23:37.619Z,8.63
2022-09-27T23:26:07.308Z,5.97
2022-09-27T23:28:36.051Z,4.83
2022-09-27T23:31:08.721Z,4.97
2022-09-27T23:33:40.348Z,4.67
2022-09-27T23:36:10.230Z,6.83
2022-09-27T23:38:40.196Z,6.27
2022-09-27T23:41:09.011Z,12.20
2022-09-27T23:43:37.319Z,4.97
2022-09-27T23:46:06.138Z,6.27
2022-09-27T23:48:34.779Z,7.37
2022-09-27T23:51:05.214Z,6.70
2022-09-27T23:53:33.303Z,6.17
2022-09-27T23:56:02.500Z,6.23
2022-09-27T23:58:33.113Z,5.73
